Toyama Airport, Japan

5:36 AM JST on March 31, 2015 (GMT +0900)
JR9MAR-WX | | Change Station
CLOSE
Current Station
Personal Weather Station
Location: TONAMI, TOYAMA
Elevation: 325 ft
Nearby Weather Stations

Elev 325 ft 36.57 °N, 136.98 °E | Updated 9 seconds ago

Mist
Mist
50.7 °F
Feels Like 50.7 °F
N
1.0
Wind Variable Wind from SSW
Gusts 5.4 mph

Today
High -- | Low -- °F
--% Chance of Precip.
Yesterday
High -- | Low -- °F
Precip. -- in
5:39 AM 6:11 PM
Waxing Gibbous, 82% visible
Pressure 30.09 in
Visibility 2.8 miles
Clouds
Dew Point 39 °F
Humidity 65%
Rainfall 0.00 in
Snow Depth Not available.
UV Not available.
Pollen Not available.
Air Quality Not available.
Flu Activity Not available.
METAR RJNK 302000Z VRB02KT 4500 BR NSC 05/03 Q1019

More Conditions Fewer Conditions

Pressure 30.09 in
Visibility 2.8 miles
Clouds
Dew Point 39 °F
Humidity 65%
Rainfall 0.00 in
Snow Depth Not available.
UV Not available.
Pollen Not available.
Air Quality Not available.
Flu Activity Not available.
METAR RJNK 302000Z VRB02KT 4500 BR NSC 05/03 Q1019

More Conditions Fewer Conditions

10-Day Weather Forecast

Almanac

Astronomy

Mar. 31, 2015 Rise Set
Actual Time
Civil Twilight
Nautical Twilight
Astronomical Twilight
Moon
Length of Visible Light
Length of Day
Tomorrow will be .
, % of the Moon is Illuminated

Today's Extremes

Country Highs Country Lows

Community

WunderPhotos

Upload Photos

1,809,582 photos uploaded!

WunderBlogs® & News

Nearby

Air Quality

  Air Quality AQ Index Pollutant
Not available.

Snow Depth

Station Depth Elevation

Earthquake Activity

City Distance Mag. Time & Date
Minimum magnitude displayed is 2.5.

Coastal Water Temperatures

Place Temperature

Stations

Nearby Weather Stations

Station Location Temp. Windchill Dew Point Humidity Wind Precip. Elev Updated Type